Watermill, New York
Current Conditions -  °F | °C
As of 12:53 AM on Friday 28 Nov 2014 (Local Time) from KFOK Reporting Station
Overcast Overcast  
Wind Chill: 27°   Ceiling: 3600
Heat Index: 35°   Visibility: 10mi
Dew Point: 25°   Wind: 10mph
Humidity: 67%   Direction: 320°NW
Pressure: 30.03"   Gusts: NA
Location:  40.9217°N, 72.3434°W
Report Text: KFOK 280553Z AUTO 32009KT 10SM SCT029 BKN036 OVC046 02/M04 A3003 RMK AO2 SLP168 T00171039 10028 20017 50001 TSNO
Loading
Personal Weather Stations






























Interactive Weather Map New forecast layout! Learn more

10-Day Weather Forecast

Advertisements
Track Severe Weather on mobile